Search for airport 
image banner adimage banner adimage banner ad
image banner ad

KNJK - El Centro Naf

Located in El Centro, United States

ICAO - NJK, IATA -

Data provided by Airmate  

General information

Coordinates: N32°49'36" W115°40'7"
Elevation is -42 feet MSL.
Magnetic variation is 11° East
View others Airports in California

Operational data

Special qualification required
Current time UTC:
Current local time:
Weather
METAR: KNJK 210056Z 00000KT 10SM CLR 38/08 A2982 RMK AO2 SLP113 T03780078 $
TAF: TAF KNJK 2023/2123 VRB04KT 9999 SKC QNH2977INS AUTOMATED SENSOR METWATCH 2106 TIL 2113 T23/2114Z T38/2122Z FS30130
View NOTAMs / SUP AIP / TFR affecting this airport [VIEW]
Communications frequencies: [VIEW]

Runways:

RWY identifierQFULength (ft)Width (ft)SurfaceLDA (ft)
0890°9503200OTHER
26270°9503200OTHER
12135°6825200OTHER
30315°6825200OTHER

Airport contact information

Address: El Centro United States

Satellite view of KNJK